Time;durP1;ratioP1;P1;durP2;ratioP2;P2;SDS_P1;SDS_P2;PMS_P1;PMS_P2;Temp;Humidity;BMP_temperature;BMP_pressure;BME280_temperature;BME280_humidity;BME280_pressure;Samples;Min_cycle;Max_cycle;Signal;HPM_P1;HPM_P2
2023/07/20 00:01:13;;;;;;;7.10;3.95;;;27.60;91.70;;;;;;5136818;27;20079;-79
2023/07/20 00:03:39;;;;;;;11.82;5.43;;;27.50;91.70;;;;;;5137145;27;20027;-79
2023/07/20 00:06:05;;;;;;;10.93;4.90;;;27.50;92.10;;;;;;5137475;27;20030;-79
2023/07/20 00:08:30;;;;;;;5.93;3.80;;;27.50;92.00;;;;;;5133456;27;20058;-79
2023/07/20 00:10:57;;;;;;;10.50;4.63;;;27.40;91.80;;;;;;5134185;27;20045;-79
2023/07/20 00:13:22;;;;;;;6.28;3.65;;;27.40;91.80;;;;;;5136494;27;20023;-79
2023/07/20 00:15:48;;;;;;;6.47;3.88;;;27.30;91.80;;;;;;5136952;27;20099;-79
2023/07/20 00:18:14;;;;;;;5.40;4.00;;;27.30;92.10;;;;;;5136848;27;20030;-79
2023/07/20 00:20:40;;;;;;;8.02;5.00;;;27.20;91.90;;;;;;5137227;27;20042;-79
2023/07/20 00:23:06;;;;;;;7.30;3.67;;;27.20;92.20;;;;;;5137161;27;20465;-78
2023/07/20 00:25:33;;;;;;;7.65;4.13;;;27.20;92.10;;;;;;5136508;27;20098;-79
2023/07/20 00:27:59;;;;;;;8.60;4.95;;;27.10;92.20;;;;;;5136655;27;20019;-79
2023/07/20 00:30:24;;;;;;;7.03;4.07;;;27.10;92.20;;;;;;5136779;27;20045;-79
2023/07/20 00:32:50;;;;;;;7.85;4.47;;;27.10;92.00;;;;;;5137106;27;20096;-79
2023/07/20 00:35:16;;;;;;;6.88;3.70;;;27.00;92.00;;;;;;5136681;27;20526;-79
2023/07/20 00:37:42;;;;;;;4.97;3.25;;;26.90;92.00;;;;;;5119687;27;20056;-78
2023/07/20 00:40:08;;;;;;;7.25;4.30;;;26.90;92.10;;;;;;5136201;27;20027;-78
2023/07/20 00:42:34;;;;;;;6.82;4.07;;;26.90;91.90;;;;;;5136690;27;20023;-79
2023/07/20 00:45:00;;;;;;;5.53;3.25;;;26.90;91.80;;;;;;5135605;27;20444;-79
2023/07/20 00:47:27;;;;;;;6.72;3.35;;;26.90;91.80;;;;;;5136731;27;20054;-78
2023/07/20 00:49:54;;;;;;;5.63;3.03;;;27.00;91.80;;;;;;5136040;27;20023;-79
2023/07/20 00:52:23;;;;;;;7.38;3.25;;;27.00;91.70;;;;;;5136401;27;20096;-79
2023/07/20 00:54:49;;;;;;;7.32;3.65;;;26.90;91.70;;;;;;5136927;27;20080;-79
2023/07/20 00:57:15;;;;;;;4.72;2.95;;;27.00;92.00;;;;;;5136758;27;20070;-79
2023/07/20 00:59:41;;;;;;;8.48;3.75;;;26.90;91.90;;;;;;5134520;27;20019;-79
2023/07/20 01:02:07;;;;;;;8.82;4.18;;;27.00;92.10;;;;;;5136391;27;20083;-79
2023/07/20 01:04:34;;;;;;;8.23;3.50;;;27.00;92.10;;;;;;5136443;27;20023;-79
2023/07/20 01:07:38;;;;;;;6.20;3.65;;;26.90;92.10;;;;;;5135369;27;20034;-78
2023/07/20 01:10:16;;;;;;;9.73;3.65;;;26.90;92.10;;;;;;5131840;27;20035;-79
2023/07/20 01:12:46;;;;;;;6.72;3.60;;;26.90;92.30;;;;;;5134998;27;20038;-79
2023/07/20 01:15:12;;;;;;;6.55;3.08;;;26.80;92.10;;;;;;5135974;27;20019;-79
2023/07/20 01:17:38;;;;;;;5.32;3.25;;;26.80;92.30;;;;;;5135644;27;20106;-78
2023/07/20 01:20:05;;;;;;;9.15;4.45;;;26.80;92.30;;;;;;5136120;27;20025;-79
2023/07/20 01:22:58;;;;;;;6.18;3.85;;;26.80;92.40;;;;;;5135941;27;20024;-78
2023/07/20 01:26:02;;;;;;;6.65;3.10;;;26.70;92.70;;;;;;5135739;27;20023;-79
2023/07/20 01:28:48;;;;;;;6.05;3.28;;;26.60;92.80;;;;;;5136286;27;20023;-78
2023/07/20 01:31:27;;;;;;;7.25;4.10;;;26.60;92.90;;;;;;5135115;27;20035;-79
2023/07/20 01:33:56;;;;;;;10.18;4.40;;;26.50;93.00;;;;;;5136070;27;20448;-79
2023/07/20 01:36:27;;;;;;;7.53;3.70;;;26.40;93.20;;;;;;5135695;27;20041;-79
2023/07/20 01:38:54;;;;;;;8.70;4.10;;;26.40;93.00;;;;;;5134272;27;20035;-79
2023/07/20 01:41:20;;;;;;;6.88;3.47;;;26.40;93.10;;;;;;5135492;27;20080;-79
2023/07/20 01:43:46;;;;;;;8.90;3.75;;;26.50;93.10;;;;;;5135549;27;20357;-79
2023/07/20 01:46:12;;;;;;;8.43;3.53;;;26.50;93.00;;;;;;5135305;27;20030;-79
2023/07/20 01:48:38;;;;;;;6.80;4.10;;;26.50;92.90;;;;;;5135252;27;20039;-79
2023/07/20 01:51:03;;;;;;;10.85;4.57;;;26.50;93.00;;;;;;5135417;27;20409;-79
2023/07/20 01:53:29;;;;;;;6.68;3.35;;;26.50;93.00;;;;;;5135225;27;20054;-79
2023/07/20 01:55:56;;;;;;;6.00;3.90;;;26.50;92.80;;;;;;5135066;27;20030;-79
2023/07/20 01:58:22;;;;;;;4.45;3.42;;;26.50;93.00;;;;;;5133418;27;20376;-79
2023/07/20 02:00:47;;;;;;;6.22;3.60;;;26.60;93.10;;;;;;5135416;27;20019;-79
2023/07/20 02:03:13;;;;;;;6.97;3.58;;;26.60;93.10;;;;;;5135362;27;20106;-79
2023/07/20 02:05:39;;;;;;;6.28;3.38;;;26.70;93.00;;;;;;5134547;27;20034;-78
2023/07/20 02:08:05;;;;;;;6.13;3.30;;;26.60;92.80;;;;;;5135016;27;20044;-79
2023/07/20 02:10:31;;;;;;;7.57;4.28;;;26.60;92.70;;;;;;5133999;27;20070;-78
2023/07/20 02:12:56;;;;;;;6.00;3.15;;;26.60;92.70;;;;;;5134898;27;20060;-79
2023/07/20 02:15:22;;;;;;;10.65;3.70;;;26.50;92.70;;;;;;5135184;27;20026;-79
2023/07/20 02:17:48;;;;;;;3.95;2.78;;;26.50;93.00;;;;;;5133896;27;20476;-79
2023/07/20 02:20:14;;;;;;;5.13;3.20;;;26.50;93.00;;;;;;5134971;27;20042;-79
2023/07/20 02:22:40;;;;;;;8.32;3.83;;;26.50;92.90;;;;;;5134804;27;20027;-79
2023/07/20 02:25:07;;;;;;;5.53;3.05;;;26.50;93.00;;;;;;5135015;27;20031;-79
2023/07/20 02:27:34;;;;;;;10.10;3.40;;;26.50;93.10;;;;;;5133659;27;20469;-79
2023/07/20 02:30:00;;;;;;;6.97;3.25;;;26.50;93.40;;;;;;5133300;27;20034;-79
2023/07/20 02:32:25;;;;;;;10.68;3.80;;;26.50;93.20;;;;;;5134653;27;20023;-79
2023/07/20 02:34:51;;;;;;;7.22;3.78;;;26.50;93.30;;;;;;5134639;27;20397;-79
2023/07/20 02:37:17;;;;;;;8.93;3.97;;;26.50;93.30;;;;;;5134732;27;20023;-79
2023/07/20 02:39:43;;;;;;;8.27;3.90;;;26.40;93.40;;;;;;5133233;27;20495;-79
2023/07/20 02:42:08;;;;;;;5.57;3.58;;;26.40;93.40;;;;;;5134756;27;20031;-79
2023/07/20 02:44:34;;;;;;;6.65;4.13;;;26.40;93.40;;;;;;5134070;27;20041;-79
2023/07/20 02:47:00;;;;;;;5.50;3.45;;;26.40;93.50;;;;;;5134611;27;20031;-79
2023/07/20 02:49:27;;;;;;;4.88;3.28;;;26.40;93.50;;;;;;5132802;27;20026;-79
2023/07/20 02:51:53;;;;;;;6.53;4.35;;;26.30;93.30;;;;;;5133192;27;20512;-79
2023/07/20 02:54:18;;;;;;;7.05;4.22;;;26.40;93.30;;;;;;5134134;27;20027;-79
2023/07/20 02:56:44;;;;;;;6.32;4.63;;;26.30;93.20;;;;;;5134596;27;20031;-79
2023/07/20 02:59:10;;;;;;;7.00;4.47;;;26.30;93.30;;;;;;5146673;22;20130;-90
2023/07/20 03:01:36;;;;;;;5.80;3.80;;;26.30;93.30;;;;;;5135915;27;20379;-90
2023/07/20 03:04:02;;;;;;;8.48;4.65;;;26.30;93.50;;;;;;5134077;28;20027;-89
2023/07/20 03:06:28;;;;;;;10.70;4.65;;;26.30;93.50;;;;;;5135393;28;20102;-88
2023/07/20 03:08:53;;;;;;;6.43;4.22;;;26.30;93.70;;;;;;5136204;28;20065;-88
2023/07/20 03:11:21;;;;;;;6.43;4.10;;;26.30;93.70;;;;;;5137802;28;20047;-88
2023/07/20 03:13:47;;;;;;;11.23;4.55;;;26.30;93.70;;;;;;5135147;28;20058;-89
2023/07/20 03:16:17;;;;;;;6.82;4.60;;;26.30;93.70;;;;;;5135663;28;20023;-89
2023/07/20 03:18:43;;;;;;;7.68;4.40;;;26.40;93.70;;;;;;5135234;28;20487;-89
2023/07/20 03:21:12;;;;;;;6.85;4.22;;;26.30;93.50;;;;;;5135417;28;20024;-88
2023/07/20 03:23:39;;;;;;;5.55;3.90;;;26.20;93.40;;;;;;5115835;28;20100;-89
2023/07/20 03:26:09;;;;;;;7.15;3.72;;;26.20;93.40;;;;;;5114741;28;20100;-88
2023/07/20 03:28:38;;;;;;;7.22;4.15;;;26.20;93.40;;;;;;5114800;28;20460;-89
2023/07/20 03:31:04;;;;;;;6.63;3.83;;;26.20;93.50;;;;;;5114788;28;20062;-89
2023/07/20 03:33:31;;;;;;;7.60;4.78;;;26.20;93.60;;;;;;5120154;28;20112;-89
2023/07/20 03:35:58;;;;;;;7.07;3.53;;;26.10;93.30;;;;;;5135211;28;20063;-89
2023/07/20 03:38:25;;;;;;;5.25;3.17;;;26.20;93.40;;;;;;5115286;28;20121;-88
2023/07/20 03:40:51;;;;;;;5.30;2.90;;;26.20;93.30;;;;;;5114822;28;20019;-89
2023/07/20 03:43:17;;;;;;;5.53;3.60;;;26.10;93.20;;;;;;5114626;28;20377;-88
2023/07/20 03:45:44;;;;;;;5.85;3.20;;;26.20;93.10;;;;;;5114135;28;20031;-89
2023/07/20 03:48:09;;;;;;;8.45;3.92;;;26.20;92.90;;;;;;5119598;28;20073;-89
2023/07/20 03:50:35;;;;;;;8.07;3.60;;;26.20;92.90;;;;;;5114562;28;20024;-88
2023/07/20 03:53:01;;;;;;;7.55;3.60;;;26.20;92.90;;;;;;5114444;28;20047;-89
2023/07/20 03:55:26;;;;;;;6.35;3.55;;;26.20;92.70;;;;;;5114532;28;20038;-89
2023/07/20 03:57:52;;;;;;;9.43;3.35;;;26.10;92.70;;;;;;5120331;28;20072;-80
2023/07/20 04:00:18;;;;;;;6.55;3.78;;;26.10;92.80;;;;;;5133305;27;20049;-79
2023/07/20 04:02:44;;;;;;;8.15;3.75;;;26.20;92.70;;;;;;5136523;27;20051;-79
2023/07/20 04:05:10;;;;;;;5.32;3.38;;;26.10;92.60;;;;;;5118760;27;20058;-79
2023/07/20 04:07:36;;;;;;;4.03;3.05;;;26.10;92.60;;;;;;5135852;27;20022;-80
2023/07/20 04:10:01;;;;;;;5.43;3.42;;;26.10;92.60;;;;;;5136771;27;20034;-80
2023/07/20 04:12:27;;;;;;;7.60;4.00;;;26.10;92.70;;;;;;5119132;27;20113;-79
2023/07/20 04:14:53;;;;;;;7.65;4.20;;;26.00;92.70;;;;;;5116461;28;20036;-79
2023/07/20 04:17:18;;;;;;;9.88;4.35;;;26.00;92.80;;;;;;5125975;27;20040;-79
2023/07/20 04:19:44;;;;;;;5.05;3.15;;;25.90;92.80;;;;;;5136744;27;20034;-79
2023/07/20 04:22:10;;;;;;;11.05;4.18;;;25.90;92.90;;;;;;5136990;27;20443;-79
2023/07/20 04:24:36;;;;;;;11.32;4.22;;;25.90;92.90;;;;;;5135186;27;20100;-79
2023/07/20 04:27:01;;;;;;;6.45;3.78;;;25.90;93.10;;;;;;5116134;27;20380;-79
2023/07/20 04:29:27;;;;;;;7.05;3.95;;;25.90;92.90;;;;;;5098015;28;20495;-79
2023/07/20 04:31:52;;;;;;;5.78;4.18;;;25.90;92.90;;;;;;5116396;28;20110;-79
2023/07/20 04:34:18;;;;;;;7.78;4.25;;;25.90;92.90;;;;;;5115946;28;20034;-79
2023/07/20 04:36:44;;;;;;;6.22;3.38;;;25.80;92.80;;;;;;5120344;27;20496;-79
2023/07/20 04:39:10;;;;;;;6.13;3.70;;;25.80;92.80;;;;;;5117863;27;20042;-80
2023/07/20 04:41:36;;;;;;;5.07;3.90;;;25.80;93.10;;;;;;5115886;28;20058;-79
2023/07/20 04:44:01;;;;;;;11.35;4.60;;;25.90;92.80;;;;;;5115854;28;20081;-79
2023/07/20 04:46:27;;;;;;;6.95;3.45;;;25.90;92.80;;;;;;5117790;27;20081;-79
2023/07/20 04:48:53;;;;;;;5.80;3.63;;;25.90;92.70;;;;;;5136763;27;20567;-79
2023/07/20 04:51:20;;;;;;;5.72;3.30;;;26.00;92.50;;;;;;5136624;27;20034;-79
2023/07/20 04:53:47;;;;;;;7.88;3.20;;;25.90;92.50;;;;;;5136600;27;20051;-80
2023/07/20 04:56:12;;;;;;;5.95;3.55;;;25.90;92.40;;;;;;5124168;27;20020;-79
2023/07/20 04:58:38;;;;;;;8.77;3.88;;;26.00;92.40;;;;;;5136262;27;20104;-80
2023/07/20 05:01:04;;;;;;;5.65;2.97;;;26.00;92.20;;;;;;5136786;27;20502;-80
2023/07/20 05:03:29;;;;;;;6.65;3.60;;;26.00;91.90;;;;;;5134158;27;20028;-79
2023/07/20 05:05:57;;;;;;;3.95;2.92;;;26.10;91.90;;;;;;5136413;27;20074;-79
2023/07/20 05:08:22;;;;;;;8.88;3.55;;;26.10;92.00;;;;;;5136536;27;20464;-80
2023/07/20 05:10:48;;;;;;;6.85;4.05;;;26.20;92.50;;;;;;5136202;27;20027;-80
2023/07/20 05:13:14;;;;;;;5.20;3.17;;;26.20;92.40;;;;;;5136102;27;20468;-79
2023/07/20 05:15:40;;;;;;;7.00;3.75;;;26.30;92.20;;;;;;5098294;28;20032;-80
2023/07/20 05:18:06;;;;;;;9.10;3.55;;;26.40;92.00;;;;;;5115537;28;20338;-80
2023/07/20 05:20:33;;;;;;;5.47;3.20;;;26.30;91.80;;;;;;5115380;28;20012;-81
2023/07/20 05:22:59;;;;;;;5.60;3.15;;;26.40;91.80;;;;;;5115347;28;20485;-80
2023/07/20 05:25:24;;;;;;;6.07;3.20;;;26.50;91.70;;;;;;5132394;27;20411;-80
2023/07/20 05:27:52;;;;;;;5.20;3.38;;;26.50;91.90;;;;;;5115164;28;20023;-80
2023/07/20 05:30:18;;;;;;;5.10;3.30;;;26.60;91.80;;;;;;5130122;27;20467;-81
2023/07/20 05:32:47;;;;;;;7.47;3.45;;;26.60;91.60;;;;;;5115093;28;20055;-81
2023/07/20 05:35:14;;;;;;;5.05;3.38;;;26.60;91.30;;;;;;5115384;28;20028;-80
2023/07/20 05:37:39;;;;;;;4.78;3.13;;;26.60;90.90;;;;;;5115458;28;20377;-80
2023/07/20 05:40:07;;;;;;;6.05;3.00;;;26.60;91.10;;;;;;5115504;27;20034;-79
2023/07/20 05:42:33;;;;;;;5.40;3.50;;;26.60;91.20;;;;;;5135550;27;20051;-80
2023/07/20 05:44:59;;;;;;;8.05;3.30;;;26.70;91.50;;;;;;5135529;27;20023;-79
2023/07/20 05:47:24;;;;;;;9.52;3.92;;;26.70;91.60;;;;;;5135333;27;20023;-80
2023/07/20 05:49:50;;;;;;;4.90;3.00;;;26.80;91.60;;;;;;5135018;27;20114;-80
2023/07/20 05:52:16;;;;;;;5.28;3.00;;;26.80;91.70;;;;;;5135330;27;20027;-80
2023/07/20 05:54:41;;;;;;;3.42;2.60;;;26.90;91.70;;;;;;5116679;27;20031;-80
2023/07/20 05:57:07;;;;;;;4.80;2.47;;;26.90;91.60;;;;;;5116840;27;20031;-79
2023/07/20 05:59:33;;;;;;;4.45;2.25;;;27.00;91.40;;;;;;5134513;27;20046;-80
2023/07/20 06:01:59;;;;;;;6.07;2.92;;;27.00;91.10;;;;;;5107234;28;20035;-80
2023/07/20 06:04:24;;;;;;;5.60;2.85;;;27.00;90.50;;;;;;5114283;28;20080;-80
2023/07/20 06:06:50;;;;;;;4.32;3.08;;;27.00;90.50;;;;;;5115219;27;20023;-79
2023/07/20 06:09:16;;;;;;;4.13;2.70;;;27.00;90.40;;;;;;5114554;28;20358;-79
2023/07/20 06:11:42;;;;;;;4.50;2.90;;;27.00;90.50;;;;;;5124622;27;20438;-79
2023/07/20 06:14:07;;;;;;;10.57;2.80;;;27.10;90.40;;;;;;5116451;27;20038;-77
2023/07/20 06:16:33;;;;;;;12.13;2.67;;;27.10;90.00;;;;;;5134880;27;20311;-77
2023/07/20 06:19:00;;;;;;;6.93;2.67;;;27.10;89.50;;;;;;5115330;27;20039;-77
2023/07/20 06:21:26;;;;;;;6.28;2.63;;;27.20;88.90;;;;;;5114272;28;20020;-76
2023/07/20 06:23:52;;;;;;;5.35;2.67;;;27.20;89.20;;;;;;5113702;28;20430;-77
2023/07/20 06:26:17;;;;;;;5.28;2.30;;;27.20;89.20;;;;;;5114132;28;20028;-77
2023/07/20 06:28:43;;;;;;;6.72;2.70;;;27.20;87.70;;;;;;5114219;28;20027;-78
2023/07/20 06:31:09;;;;;;;9.40;2.60;;;27.30;88.30;;;;;;5115246;27;20061;-78
2023/07/20 06:33:34;;;;;;;4.72;2.10;;;27.40;88.20;;;;;;5104969;28;20035;-77
2023/07/20 06:36:00;;;;;;;6.50;2.90;;;27.40;88.60;;;;;;5113730;28;20081;-77
2023/07/20 06:38:26;;;;;;;5.90;2.63;;;27.50;89.10;;;;;;5128150;27;20447;-76
2023/07/20 06:40:52;;;;;;;6.20;2.85;;;27.60;88.80;;;;;;5115754;27;20377;-77
2023/07/20 06:43:18;;;;;;;3.28;2.40;;;27.70;88.40;;;;;;5133867;27;20091;-77
2023/07/20 06:45:44;;;;;;;3.00;1.98;;;27.80;88.20;;;;;;5134136;27;20067;-77
2023/07/20 06:48:10;;;;;;;5.30;2.15;;;27.80;87.90;;;;;;5132319;27;20032;-77
2023/07/20 06:50:35;;;;;;;3.25;2.30;;;27.90;87.00;;;;;;5134300;27;20031;-77
2023/07/20 06:53:03;;;;;;;2.45;2.10;;;28.00;86.70;;;;;;5134387;27;20034;-80
2023/07/20 06:55:29;;;;;;;4.50;2.00;;;28.00;86.70;;;;;;5134150;27;20027;-80
2023/07/20 06:57:55;;;;;;;3.15;2.13;;;28.10;85.70;;;;;;5131664;27;20388;-80
2023/07/20 07:00:21;;;;;;;6.10;2.20;;;28.10;86.00;;;;;;5126924;28;20047;-79
2023/07/20 07:02:46;;;;;;;5.97;2.50;;;28.20;85.80;;;;;;5116051;27;20051;-79
2023/07/20 07:05:14;;;;;;;5.18;2.08;;;28.30;85.60;;;;;;5113867;28;20036;-80
2023/07/20 07:07:40;;;;;;;3.97;1.60;;;28.30;84.50;;;;;;5113457;28;20034;-80
2023/07/20 07:10:06;;;;;;;4.05;1.95;;;28.30;85.20;;;;;;5113575;28;20081;-79
2023/07/20 07:12:32;;;;;;;6.07;2.45;;;28.40;85.40;;;;;;5113579;28;20024;-79
2023/07/20 07:14:58;;;;;;;3.92;2.10;;;28.40;85.10;;;;;;5113548;28;20051;-80
2023/07/20 07:17:24;;;;;;;4.78;2.10;;;28.50;85.30;;;;;;5113545;28;20028;-80
2023/07/20 07:19:53;;;;;;;4.18;2.50;;;28.60;85.30;;;;;;5095034;28;20366;-80
2023/07/20 07:22:19;;;;;;;4.37;2.60;;;28.60;85.70;;;;;;5115429;28;20023;-79
2023/07/20 07:24:44;;;;;;;3.78;2.38;;;28.70;85.20;;;;;;5123239;28;20019;-80
2023/07/20 07:27:11;;;;;;;3.00;2.17;;;28.70;85.20;;;;;;5134092;28;20041;-89
2023/07/20 07:29:36;;;;;;;4.32;2.40;;;28.70;84.80;;;;;;5134265;28;20468;-90
2023/07/20 07:32:02;;;;;;;6.13;2.38;;;28.70;84.50;;;;;;5134152;28;20058;-87
2023/07/20 07:34:28;;;;;;;3.63;2.78;;;28.80;83.20;;;;;;5120430;28;20492;-86
2023/07/20 07:36:54;;;;;;;4.28;2.25;;;28.80;84.10;;;;;;5119828;27;20030;-87
2023/07/20 07:39:19;;;;;;;3.00;1.77;;;28.80;84.50;;;;;;5124671;27;20046;-86
2023/07/20 07:41:45;;;;;;;3.35;2.05;;;28.90;84.60;;;;;;5122209;27;20086;-86
2023/07/20 07:44:11;;;;;;;4.53;2.40;;;29.00;84.20;;;;;;5117150;27;20069;-86
2023/07/20 07:46:37;;;;;;;3.25;2.17;;;29.00;84.30;;;;;;5134975;27;20034;-86
2023/07/20 07:49:03;;;;;;;5.40;2.10;;;29.10;83.50;;;;;;5137356;27;20054;-87
2023/07/20 07:51:29;;;;;;;3.80;2.15;;;29.10;83.30;;;;;;5121602;27;20043;-88
2023/07/20 07:53:55;;;;;;;3.60;2.00;;;29.10;82.80;;;;;;5128353;27;20086;-89
2023/07/20 07:56:22;;;;;;;3.42;1.80;;;29.10;81.30;;;;;;5117239;28;20388;-90
2023/07/20 07:58:51;;;;;;;4.47;1.95;;;29.20;81.50;;;;;;5124234;27;20020;-89
2023/07/20 08:01:18;;;;;;;5.65;1.90;;;29.20;80.70;;;;;;5117371;28;20582;-89
2023/07/20 08:03:47;;;;;;;2.35;1.65;;;29.30;80.80;;;;;;5119125;27;20039;-89
2023/07/20 08:06:14;;;;;;;2.60;1.60;;;29.30;80.10;;;;;;5098855;28;20036;-89
2023/07/20 08:08:40;;;;;;;2.05;1.45;;;29.40;79.20;;;;;;5098789;28;20448;-89
2023/07/20 08:11:05;;;;;;;3.78;1.80;;;29.40;79.50;;;;;;5136284;27;20027;-89
2023/07/20 08:13:32;;;;;;;2.80;1.63;;;29.50;79.40;;;;;;5137304;27;20019;-89
2023/07/20 08:15:58;;;;;;;3.50;1.95;;;29.50;79.40;;;;;;5137357;27;20075;-89
2023/07/20 08:18:24;;;;;;;3.85;1.88;;;29.60;78.50;;;;;;5137068;27;20027;-89
2023/07/20 08:20:50;;;;;;;4.10;1.80;;;29.60;77.80;;;;;;5137285;27;20488;-90
2023/07/20 08:23:15;;;;;;;6.32;1.95;;;29.60;76.20;;;;;;5121077;27;20022;-88
2023/07/20 08:25:43;;;;;;;3.10;1.60;;;29.60;76.40;;;;;;5122726;27;20038;-88
2023/07/20 08:28:15;;;;;;;3.88;2.08;;;29.70;76.30;;;;;;5118147;27;20061;-89
2023/07/20 08:30:46;;;;;;;1.52;1.23;;;29.70;77.50;;;;;;5117024;27;20034;-88
2023/07/20 08:33:14;;;;;;;4.15;1.88;;;29.90;78.00;;;;;;5127912;27;20011;-87
2023/07/20 08:35:40;;;;;;;4.13;1.77;;;29.90;77.00;;;;;;5117117;27;20522;-88
2023/07/20 08:38:07;;;;;;;3.20;1.50;;;30.00;75.80;;;;;;5102870;28;20019;-89
2023/07/20 08:40:33;;;;;;;2.95;1.77;;;30.00;76.10;;;;;;5119752;27;20068;-90
2023/07/20 08:43:03;;;;;;;4.20;1.85;;;30.10;76.90;;;;;;5121570;27;20019;-79
2023/07/20 08:45:31;;;;;;;3.00;1.70;;;30.10;76.50;;;;;;5127538;27;20023;-79
2023/07/20 08:48:00;;;;;;;4.90;2.08;;;30.20;76.60;;;;;;5135198;27;20023;-79
2023/07/20 08:50:33;;;;;;;3.15;1.83;;;30.20;74.70;;;;;;5123539;27;20043;-79
2023/07/20 08:52:59;;;;;;;6.25;2.05;;;30.30;74.30;;;;;;5116264;28;20109;-79
2023/07/20 08:55:29;;;;;;;4.63;2.22;;;30.30;74.40;;;;;;5127400;27;20027;-79
2023/07/20 08:57:55;;;;;;;;;;;30.30;73.00;;;;;;5135563;27;20034;-76
2023/07/20 09:00:22;;;;;;;6.25;2.17;;;30.20;73.60;;;;;;5112374;28;19999;-77
2023/07/20 09:02:51;;;;;;;5.53;1.55;;;30.20;73.30;;;;;;5118469;27;20037;-76
2023/07/20 09:05:18;;;;;;;2.15;1.67;;;30.20;74.00;;;;;;5120278;27;20020;-76
2023/07/20 09:07:44;;;;;;;3.05;1.40;;;30.20;73.40;;;;;;5124295;27;20107;-76
2023/07/20 09:10:11;;;;;;;3.72;1.23;;;30.30;74.20;;;;;;5127757;27;20057;-77
2023/07/20 09:12:38;;;;;;;2.95;1.70;;;30.30;74.10;;;;;;5127458;27;20519;-77
2023/07/20 09:15:05;;;;;;;2.67;1.50;;;30.40;74.30;;;;;;5105500;27;20495;-77
2023/07/20 09:17:31;;;;;;;2.88;1.40;;;30.50;73.10;;;;;;5130013;27;20027;-77
2023/07/20 09:19:57;;;;;;;6.57;2.13;;;30.60;73.50;;;;;;5127946;27;20381;-77
2023/07/20 09:22:30;;;;;;;3.60;1.55;;;30.70;72.40;;;;;;5127404;27;20160;-78
2023/07/20 09:24:56;;;;;;;3.45;1.58;;;30.70;71.70;;;;;;5125057;27;20110;-77
2023/07/20 09:27:22;;;;;;;2.80;1.73;;;30.80;71.00;;;;;;5127558;27;20115;-77
2023/07/20 09:29:51;;;;;;;3.30;1.45;;;30.80;71.60;;;;;;5108399;27;20133;-77
2023/07/20 09:32:21;;;;;;;4.03;1.67;;;30.90;70.90;;;;;;5105522;28;20037;-80
2023/07/20 09:34:49;;;;;;;7.18;1.63;;;31.00;72.30;;;;;;5115050;28;20265;-77
2023/07/20 09:37:23;;;;;;;2.50;1.38;;;31.10;71.40;;;;;;5114924;28;20035;-77
2023/07/20 09:39:52;;;;;;;2.00;1.40;;;31.20;71.30;;;;;;5114305;28;20069;-77
2023/07/20 09:42:18;;;;;;;;;;;31.20;71.50;;;;;;5115015;28;20365;-78
2023/07/20 09:44:44;;;;;;;3.47;1.95;;;31.30;70.30;;;;;;5124750;27;19916;-77
2023/07/20 09:47:10;;;;;;;6.93;2.20;;;31.30;71.30;;;;;;5115752;27;20023;-78
2023/07/20 09:49:40;;;;;;;2.53;1.77;;;31.40;70.00;;;;;;5114727;28;20028;-77
2023/07/20 09:52:11;;;;;;;5.45;2.17;;;31.40;68.70;;;;;;5128379;27;20034;-77
2023/07/20 09:54:41;;;;;;;2.60;2.00;;;31.50;69.80;;;;;;5114561;28;20059;-79
2023/07/20 09:57:10;;;;;;;;;;;31.40;70.30;;;;;;5121362;27;20081;-79
2023/07/20 09:59:36;;;;;;;4.73;1.73;;;31.50;71.00;;;;;;5113592;27;19915;-79
2023/07/20 10:02:09;;;;;;;3.25;1.50;;;31.70;71.50;;;;;;5114329;28;20282;-79
2023/07/20 10:04:36;;;;;;;5.22;2.33;;;31.80;71.00;;;;;;5113765;28;20393;-78
2023/07/20 10:07:10;;;;;;;3.25;1.95;;;31.80;68.20;;;;;;5121840;27;20053;-79
2023/07/20 10:09:39;;;;;;;2.60;1.60;;;31.80;68.60;;;;;;5119556;27;20020;-79
2023/07/20 10:12:06;;;;;;;7.93;2.00;;;31.80;67.10;;;;;;5122046;27;20023;-88
2023/07/20 10:14:38;;;;;;;3.08;1.20;;;31.80;66.10;;;;;;5123417;27;20051;-89
2023/07/20 10:17:06;;;;;;;6.35;1.63;;;31.90;63.40;;;;;;5105878;27;20031;-88
2023/07/20 10:19:41;;;;;;;3.92;1.20;;;32.00;65.00;;;;;;5129506;27;20027;-89
2023/07/20 10:22:19;;;;;;;2.83;1.40;;;32.10;64.50;;;;;;5115736;27;20505;-89
2023/07/20 10:24:47;;;;;;;4.75;1.58;;;32.30;65.90;;;;;;5122637;27;20022;-89
2023/07/20 10:27:14;;;;;;;3.13;1.70;;;32.50;66.70;;;;;;5128462;27;20019;-89
2023/07/20 10:29:40;;;;;;;2.35;1.23;;;32.60;66.70;;;;;;5125304;27;20030;-89
2023/07/20 10:32:08;;;;;;;5.97;1.73;;;32.70;62.70;;;;;;5134380;27;20106;-89
2023/07/20 10:34:34;;;;;;;3.63;1.33;;;32.90;63.30;;;;;;5135082;27;20027;-89
2023/07/20 10:37:00;;;;;;;6.40;1.60;;;32.90;56.90;;;;;;5125813;27;20053;-88
2023/07/20 10:39:28;;;;;;;1.75;1.00;;;32.80;58.20;;;;;;5126112;27;20113;-89
2023/07/20 10:42:06;;;;;;;2.13;1.00;;;32.90;58.50;;;;;;5119906;27;20024;-89
2023/07/20 10:44:32;;;;;;;2.70;1.17;;;33.00;60.60;;;;;;5134711;27;20105;-89
2023/07/20 10:47:02;;;;;;;4.53;1.20;;;33.10;61.30;;;;;;5128756;27;20028;-89
2023/07/20 10:49:28;;;;;;;4.68;1.92;;;33.30;57.70;;;;;;5114893;28;20024;-89
2023/07/20 10:52:03;;;;;;;5.20;1.45;;;33.30;57.80;;;;;;5123263;27;20039;-89
2023/07/20 10:54:28;;;;;;;1.35;1.10;;;33.20;58.70;;;;;;5118952;27;20015;-89
2023/07/20 10:56:56;;;;;;;2.67;1.20;;;33.40;60.50;;;;;;5106471;28;20088;-86
2023/07/20 10:59:25;;;;;;;5.82;2.55;;;33.50;60.90;;;;;;5103563;28;20427;-86
2023/07/20 11:01:55;;;;;;;3.75;2.00;;;33.70;58.30;;;;;;5124461;27;20031;-87
2023/07/20 11:04:41;;;;;;;2.53;1.80;;;33.80;59.70;;;;;;5112350;28;20023;-86
2023/07/20 11:07:07;;;;;;;2.30;1.27;;;34.10;58.40;;;;;;5123655;28;20019;-87
2023/07/20 11:09:37;;;;;;;1.85;1.30;;;34.10;58.40;;;;;;5116909;28;20031;-86
2023/07/20 11:12:11;;;;;;;2.95;1.65;;;34.10;59.20;;;;;;5099590;28;20362;-85
2023/07/20 11:14:41;;;;;;;5.10;2.00;;;34.20;58.90;;;;;;5133003;28;20023;-83
2023/07/20 11:17:14;;;;;;;3.08;1.52;;;34.30;58.00;;;;;;5126747;28;20095;-84
2023/07/20 11:19:41;;;;;;;1.52;1.10;;;34.30;57.90;;;;;;5100738;28;20369;-84
2023/07/20 11:22:10;;;;;;;3.65;1.40;;;34.30;58.80;;;;;;5124988;28;20023;-84
2023/07/20 11:24:40;;;;;;;3.75;1.67;;;34.40;56.80;;;;;;5104974;28;20475;-85
2023/07/20 11:27:05;;;;;;;;;;;34.30;57.80;;;;;;5126982;28;20023;-85
2023/07/20 11:29:31;;;;;;;3.28;1.48;;;34.40;58.10;;;;;;5119092;28;19957;-84
2023/07/20 11:32:01;;;;;;;4.40;1.63;;;34.60;56.60;;;;;;5115889;28;20040;-84
2023/07/20 11:34:31;;;;;;;3.03;1.83;;;34.70;56.20;;;;;;5113943;28;20036;-84
2023/07/20 11:36:57;;;;;;;2.92;1.50;;;34.90;56.30;;;;;;5122725;28;20049;-83
2023/07/20 11:39:26;;;;;;;3.80;1.40;;;35.10;56.80;;;;;;5101782;28;20088;-83
2023/07/20 11:41:54;;;;;;;2.15;1.52;;;35.30;57.30;;;;;;5118968;28;20358;-83
2023/07/20 11:44:26;;;;;;;4.07;1.60;;;35.70;57.60;;;;;;5124799;28;20034;-84
2023/07/20 11:47:07;;;;;;;3.28;1.23;;;36.10;56.40;;;;;;5126066;28;20477;-84
2023/07/20 11:49:37;;;;;;;3.00;1.20;;;36.50;53.30;;;;;;5128150;28;20477;-86
2023/07/20 11:52:05;;;;;;;1.90;1.52;;;36.80;54.50;;;;;;5117048;28;20019;-83
2023/07/20 11:54:31;;;;;;;3.67;1.42;;;37.10;54.50;;;;;;5122732;28;20092;-84
2023/07/20 11:57:00;;;;;;;2.28;1.38;;;37.30;53.70;;;;;;5128110;28;20035;-85
2023/07/20 11:59:25;;;;;;;2.97;1.52;;;37.60;53.70;;;;;;5133540;28;20047;-83
2023/07/20 12:01:52;;;;;;;2.00;1.30;;;38.00;53.20;;;;;;5133887;28;20342;-84
2023/07/20 12:04:18;;;;;;;3.42;1.40;;;38.20;52.50;;;;;;5130872;28;20035;-84
2023/07/20 12:06:46;;;;;;;6.63;2.15;;;38.40;52.50;;;;;;5113451;28;20019;-84
2023/07/20 12:09:17;;;;;;;3.05;1.92;;;38.80;52.40;;;;;;5113538;28;20024;-85
2023/07/20 12:11:44;;;;;;;2.05;1.10;;;39.10;52.20;;;;;;5113331;28;20023;-84
2023/07/20 12:14:10;;;;;;;2.60;1.45;;;39.30;51.00;;;;;;5113227;28;20023;-84
2023/07/20 12:16:40;;;;;;;3.38;1.40;;;39.50;50.40;;;;;;5113303;28;20487;-84
2023/07/20 12:19:11;;;;;;;3.42;1.70;;;39.60;50.20;;;;;;5111841;28;20035;-84
2023/07/20 12:21:39;;;;;;;2.22;1.35;;;39.70;49.50;;;;;;5112951;28;20480;-83
2023/07/20 12:24:06;;;;;;;4.38;1.15;;;39.80;49.90;;;;;;5098128;28;20023;-84
2023/07/20 12:26:33;;;;;;;3.97;1.45;;;39.80;48.80;;;;;;5116809;28;20105;-84
2023/07/20 12:29:00;;;;;;;5.53;1.63;;;39.90;49.30;;;;;;5116938;28;20023;-81
2023/07/20 12:31:26;;;;;;;3.75;1.80;;;40.00;49.50;;;;;;5134487;27;20023;-81
2023/07/20 12:33:55;;;;;;;4.55;1.73;;;40.10;48.60;;;;;;5136850;27;20035;-81
2023/07/20 12:36:21;;;;;;;3.30;1.75;;;40.10;49.10;;;;;;5136765;27;20486;-80
2023/07/20 12:38:46;;;;;;;8.48;1.70;;;40.10;47.60;;;;;;5136786;27;20031;-80
2023/07/20 12:41:13;;;;;;;3.03;1.45;;;40.20;48.20;;;;;;5136632;27;20019;-80
2023/07/20 12:43:43;;;;;;;1.85;1.13;;;40.10;47.90;;;;;;5118743;27;20038;-81
2023/07/20 12:46:09;;;;;;;2.42;1.33;;;39.90;48.30;;;;;;5116230;28;20420;-81
2023/07/20 12:48:41;;;;;;;4.53;1.83;;;39.80;48.40;;;;;;5115889;28;20073;-81